Time;durP1;ratioP1;P1;durP2;ratioP2;P2;SDS_P1;SDS_P2;PMS_P1;PMS_P2;Temp;Humidity;BMP_temperature;BMP_pressure;BME280_temperature;BME280_humidity;BME280_pressure;Samples;Min_cycle;Max_cycle;Signal;HPM_P1;HPM_P2
2024/03/29 00:02:12;;;;;;;3.23;0.60;;;;;;;;;;4934230;29;21177;-66
2024/03/29 00:04:38;;;;;;;1.45;0.90;;;;;;;;;;4931847;29;20356;-67
2024/03/29 00:07:04;;;;;;;0.75;0.60;;;;;;;;;;4931023;29;20074;-68
2024/03/29 00:09:30;;;;;;;1.70;0.98;;;;;;;;;;4931830;29;20035;-65
2024/03/29 00:11:57;;;;;;;2.75;0.70;;;;;;;;;;4931015;29;20102;-66
2024/03/29 00:14:23;;;;;;;1.38;0.80;;;;;;;;;;4932406;29;20047;-66
2024/03/29 00:16:49;;;;;;;1.80;0.60;;;;;;;;;;4933718;28;20523;-66
2024/03/29 00:19:15;;;;;;;2.30;0.60;;;;;;;;;;4947301;28;20051;-66
2024/03/29 00:21:41;;;;;;;1.33;0.60;;;;;;;;;;4930744;29;20043;-66
2024/03/29 00:24:07;;;;;;;1.23;0.60;;;;;;;;;;4931841;29;20066;-66
2024/03/29 00:26:33;;;;;;;0.95;0.50;;;;;;;;;;4932595;29;20035;-66
2024/03/29 00:28:59;;;;;;;1.40;0.70;;;;;;;;;;4934083;28;20035;-66
2024/03/29 00:31:25;;;;;;;0.80;0.50;;;;;;;;;;4930243;29;20416;-66
2024/03/29 00:33:51;;;;;;;1.02;0.70;;;;;;;;;;4932490;29;20047;-66
2024/03/29 00:36:17;;;;;;;3.58;0.85;;;;;;;;;;4947751;28;20047;-66
2024/03/29 00:38:43;;;;;;;2.28;0.80;;;;;;;;;;4932302;29;20044;-66
2024/03/29 00:41:09;;;;;;;1.48;0.60;;;;;;;;;;4932823;29;20047;-66
2024/03/29 00:43:36;;;;;;;1.50;0.50;;;;;;;;;;4933158;28;20055;-67
2024/03/29 00:46:02;;;;;;;0.60;0.43;;;;;;;;;;4948378;28;20047;-66
2024/03/29 00:48:28;;;;;;;2.67;0.75;;;;;;;;;;4936467;28;20058;-66
2024/03/29 00:50:55;;;;;;;0.60;0.60;;;;;;;;;;4932790;29;20047;-67
2024/03/29 00:53:21;;;;;;;0.85;0.63;;;;;;;;;;4947263;29;20043;-67
2024/03/29 00:55:47;;;;;;;0.63;0.60;;;;;;;;;;4936805;28;20047;-66
2024/03/29 00:58:13;;;;;;;1.48;0.60;;;;;;;;;;4936344;29;20036;-67
2024/03/29 01:00:39;;;;;;;0.98;0.57;;;;;;;;;;4932777;29;20051;-66
2024/03/29 01:03:05;;;;;;;1.20;0.52;;;;;;;;;;4947513;28;20043;-66
2024/03/29 01:05:31;;;;;;;2.05;0.68;;;;;;;;;;4933256;29;20051;-66
2024/03/29 01:07:57;;;;;;;0.98;0.60;;;;;;;;;;4932905;29;20052;-66
2024/03/29 01:10:23;;;;;;;1.85;0.60;;;;;;;;;;4914818;29;20522;-66
2024/03/29 01:12:49;;;;;;;0.52;0.40;;;;;;;;;;4932031;29;20120;-66
2024/03/29 01:15:16;;;;;;;0.57;0.52;;;;;;;;;;4935754;28;20047;-66
2024/03/29 01:17:42;;;;;;;0.52;0.50;;;;;;;;;;4917582;29;20519;-66
2024/03/29 01:20:08;;;;;;;1.60;0.60;;;;;;;;;;4934609;29;20508;-67
2024/03/29 01:22:34;;;;;;;0.85;0.60;;;;;;;;;;4933707;29;20488;-66
2024/03/29 01:25:03;;;;;;;1.70;0.60;;;;;;;;;;4933381;29;20043;-66
2024/03/29 01:27:29;;;;;;;1.38;0.60;;;;;;;;;;4933599;29;20058;-66
2024/03/29 01:29:55;;;;;;;1.02;0.60;;;;;;;;;;4947568;28;20043;-66
2024/03/29 01:32:21;;;;;;;0.65;0.50;;;;;;;;;;4932113;29;20055;-66
2024/03/29 01:34:47;;;;;;;1.75;0.60;;;;;;;;;;4933397;29;20495;-65
2024/03/29 01:37:13;;;;;;;0.70;0.40;;;;;;;;;;4933106;28;20048;-66
2024/03/29 01:39:39;;;;;;;0.95;0.40;;;;;;;;;;4932672;29;20039;-66
2024/03/29 01:42:05;;;;;;;1.20;0.52;;;;;;;;;;4947527;28;20032;-65
2024/03/29 01:44:31;;;;;;;0.60;0.40;;;;;;;;;;4949288;28;20042;-66
2024/03/29 01:46:58;;;;;;;0.63;0.40;;;;;;;;;;4934369;29;20428;-66
2024/03/29 01:49:24;;;;;;;0.50;0.40;;;;;;;;;;4931121;29;20424;-66
2024/03/29 01:51:50;;;;;;;1.63;0.70;;;;;;;;;;4948886;28;20111;-66
2024/03/29 01:54:17;;;;;;;0.77;0.40;;;;;;;;;;4931706;29;20056;-66
2024/03/29 01:56:43;;;;;;;2.33;0.50;;;;;;;;;;4934524;29;20043;-66
2024/03/29 01:59:14;;;;;;;0.55;0.50;;;;;;;;;;4933560;29;20035;-66
2024/03/29 02:01:42;;;;;;;0.50;0.43;;;;;;;;;;4915132;29;20547;-66
2024/03/29 02:04:09;;;;;;;0.60;0.40;;;;;;;;;;4951448;28;20412;-67
2024/03/29 02:06:37;;;;;;;0.70;0.60;;;;;;;;;;4951481;28;20051;-67
2024/03/29 02:09:03;;;;;;;1.13;0.60;;;;;;;;;;4932827;29;20515;-66
2024/03/29 02:11:30;;;;;;;0.40;0.40;;;;;;;;;;4931589;29;20512;-66
2024/03/29 02:13:57;;;;;;;3.28;0.52;;;;;;;;;;4932649;29;20048;-66
2024/03/29 02:16:23;;;;;;;1.40;0.50;;;;;;;;;;4935718;28;20133;-65
2024/03/29 02:18:49;;;;;;;1.02;0.40;;;;;;;;;;4933387;28;20543;-66
2024/03/29 02:21:15;;;;;;;0.45;0.45;;;;;;;;;;4946325;28;20392;-65
2024/03/29 02:23:44;;;;;;;1.02;0.50;;;;;;;;;;4934974;29;20047;-67
2024/03/29 02:26:11;;;;;;;1.17;0.40;;;;;;;;;;4936618;29;20043;-66
2024/03/29 02:28:37;;;;;;;2.83;0.50;;;;;;;;;;4950671;28;20063;-66
2024/03/29 02:31:04;;;;;;;1.00;0.45;;;;;;;;;;4935801;29;20055;-66
2024/03/29 02:33:30;;;;;;;0.55;0.50;;;;;;;;;;4935711;28;20070;-66
2024/03/29 02:35:57;;;;;;;1.05;0.40;;;;;;;;;;4934237;29;20059;-66
2024/03/29 02:38:23;;;;;;;0.85;0.60;;;;;;;;;;4935909;29;20514;-66
2024/03/29 02:40:49;;;;;;;1.08;0.60;;;;;;;;;;4935851;29;20040;-66
2024/03/29 02:43:15;;;;;;;0.73;0.50;;;;;;;;;;4936523;29;20058;-66
2024/03/29 02:45:41;;;;;;;0.55;0.43;;;;;;;;;;4936099;29;20051;-66
2024/03/29 02:48:07;;;;;;;0.98;0.40;;;;;;;;;;4937560;29;20043;-65
2024/03/29 02:50:33;;;;;;;0.43;0.35;;;;;;;;;;4929268;29;20040;-66
2024/03/29 02:52:59;;;;;;;1.05;0.28;;;;;;;;;;4948118;28;20488;-66
2024/03/29 02:55:26;;;;;;;0.90;0.50;;;;;;;;;;4936135;29;20042;-65
2024/03/29 02:57:52;;;;;;;0.52;0.38;;;;;;;;;;4934749;29;20055;-66
2024/03/29 03:00:18;;;;;;;1.02;0.32;;;;;;;;;;4934161;29;20041;-66
2024/03/29 03:02:44;;;;;;;0.38;0.30;;;;;;;;;;4933766;29;20028;-67
2024/03/29 03:05:10;;;;;;;0.40;0.30;;;;;;;;;;4934783;29;20507;-67
2024/03/29 03:13:05;;;;;;;3.33;0.50;;;;;;;;;;4933039;29;20062;-66
2024/03/29 03:15:32;;;;;;;2.63;0.60;;;;;;;;;;4936308;29;20039;-66
2024/03/29 03:17:58;;;;;;;0.38;0.35;;;;;;;;;;4936137;29;20043;-67
2024/03/29 03:20:30;;;;;;;1.45;0.60;;;;;;;;;;4935061;29;20039;-67
2024/03/29 03:22:57;;;;;;;1.60;0.38;;;;;;;;;;4949702;28;20039;-67
2024/03/29 03:25:26;;;;;;;0.50;0.32;;;;;;;;;;4933558;29;20047;-66
2024/03/29 03:27:52;;;;;;;1.05;0.40;;;;;;;;;;4936425;29;20047;-67
2024/03/29 03:30:18;;;;;;;0.38;0.35;;;;;;;;;;4934121;29;20036;-70
2024/03/29 03:32:44;;;;;;;0.30;0.20;;;;;;;;;;4933159;29;20039;-68
2024/03/29 03:35:10;;;;;;;1.35;0.40;;;;;;;;;;4934404;28;20503;-67
2024/03/29 03:37:37;;;;;;;1.85;0.70;;;;;;;;;;4932900;28;20415;-68
2024/03/29 03:40:04;;;;;;;0.65;0.30;;;;;;;;;;4935976;29;20058;-67
2024/03/29 03:42:30;;;;;;;0.40;0.30;;;;;;;;;;4935613;29;20040;-68
2024/03/29 03:44:56;;;;;;;0.55;0.20;;;;;;;;;;4936397;29;20039;-68
2024/03/29 03:47:22;;;;;;;1.95;0.40;;;;;;;;;;4936956;29;20035;-68
2024/03/29 03:49:48;;;;;;;0.55;0.30;;;;;;;;;;4952123;28;20070;-68
2024/03/29 03:52:14;;;;;;;0.20;0.20;;;;;;;;;;4934475;29;20480;-68
2024/03/29 03:54:40;;;;;;;0.20;0.20;;;;;;;;;;4930235;29;20035;-68
2024/03/29 03:57:07;;;;;;;1.33;0.50;;;;;;;;;;4930879;29;20047;-68
2024/03/29 03:59:33;;;;;;;0.65;0.50;;;;;;;;;;4935778;29;20063;-69
2024/03/29 04:01:59;;;;;;;0.40;0.40;;;;;;;;;;4947451;28;20038;-68
2024/03/29 04:04:25;;;;;;;0.30;0.30;;;;;;;;;;4933611;29;20055;-68
2024/03/29 04:06:51;;;;;;;0.70;0.30;;;;;;;;;;4933531;29;20499;-68
2024/03/29 04:09:17;;;;;;;0.47;0.32;;;;;;;;;;4934853;28;20067;-67
2024/03/29 04:11:44;;;;;;;0.20;0.20;;;;;;;;;;4933586;29;20058;-69
2024/03/29 04:14:10;;;;;;;0.47;0.30;;;;;;;;;;4935600;29;20044;-68
2024/03/29 04:16:36;;;;;;;0.45;0.30;;;;;;;;;;4935956;29;20062;-68
2024/03/29 04:19:02;;;;;;;0.95;0.50;;;;;;;;;;4933695;28;20031;-68
2024/03/29 04:21:28;;;;;;;0.95;0.40;;;;;;;;;;4932028;29;20484;-68
2024/03/29 04:23:54;;;;;;;0.43;0.30;;;;;;;;;;4930317;29;20039;-67
2024/03/29 04:26:20;;;;;;;0.30;0.30;;;;;;;;;;4938306;29;20050;-68
2024/03/29 04:28:46;;;;;;;0.40;0.30;;;;;;;;;;4932912;29;20487;-69
2024/03/29 04:31:12;;;;;;;0.40;0.25;;;;;;;;;;4932411;29;20431;-68
2024/03/29 04:33:38;;;;;;;0.75;0.32;;;;;;;;;;4934268;29;20046;-68
2024/03/29 04:36:04;;;;;;;0.75;0.40;;;;;;;;;;4932660;29;20040;-69
2024/03/29 04:38:31;;;;;;;0.40;0.40;;;;;;;;;;4933987;29;20046;-69
2024/03/29 04:40:58;;;;;;;0.30;0.30;;;;;;;;;;4934069;29;20403;-67
2024/03/29 04:43:27;;;;;;;0.30;0.30;;;;;;;;;;4947824;28;20038;-69
2024/03/29 04:46:06;;;;;;;0.25;0.25;;;;;;;;;;4935591;29;20050;-67
2024/03/29 04:48:32;;;;;;;0.50;0.25;;;;;;;;;;4949057;28;20051;-68
2024/03/29 04:50:58;;;;;;;0.55;0.20;;;;;;;;;;4931337;29;20040;-68
2024/03/29 04:53:24;;;;;;;0.40;0.32;;;;;;;;;;4933514;29;20050;-68
2024/03/29 04:55:54;;;;;;;0.50;0.30;;;;;;;;;;4938645;29;20027;-68
2024/03/29 04:58:22;;;;;;;1.15;0.30;;;;;;;;;;4927134;29;20050;-68
2024/03/29 05:00:52;;;;;;;0.43;0.22;;;;;;;;;;4935322;29;20047;-69
2024/03/29 05:03:18;;;;;;;;;;;;;;;;;;4930608;29;20031;-67
2024/03/29 05:05:45;;;;;;;0.20;0.20;;;;;;;;;;4932719;29;19914;-69
2024/03/29 05:08:11;;;;;;;0.43;0.30;;;;;;;;;;4932874;29;20416;-69
2024/03/29 05:10:42;;;;;;;1.35;0.30;;;;;;;;;;4934727;28;20415;-67
2024/03/29 05:13:08;;;;;;;0.68;0.30;;;;;;;;;;4932395;29;20054;-67
2024/03/29 05:15:34;;;;;;;0.30;0.30;;;;;;;;;;4934633;28;20059;-68
2024/03/29 05:18:00;;;;;;;0.50;0.40;;;;;;;;;;4930261;29;20035;-66
2024/03/29 05:20:26;;;;;;;0.45;0.40;;;;;;;;;;4932115;29;20044;-68
2024/03/29 05:22:52;;;;;;;1.45;0.38;;;;;;;;;;4931718;29;20032;-67
2024/03/29 05:25:18;;;;;;;0.30;0.30;;;;;;;;;;4938102;29;20039;-68
2024/03/29 05:27:44;;;;;;;1.38;0.40;;;;;;;;;;4929798;29;20047;-67
2024/03/29 05:30:11;;;;;;;0.40;0.40;;;;;;;;;;4932387;29;20031;-68
2024/03/29 05:32:37;;;;;;;0.52;0.30;;;;;;;;;;4915826;29;20526;-67
2024/03/29 05:35:03;;;;;;;0.88;0.40;;;;;;;;;;4932375;29;20065;-67
2024/03/29 05:37:30;;;;;;;0.30;0.30;;;;;;;;;;4930827;29;20653;-67
2024/03/29 05:39:59;;;;;;;0.40;0.30;;;;;;;;;;4931007;29;20039;-67
2024/03/29 05:42:26;;;;;;;1.67;0.30;;;;;;;;;;4929708;29;20040;-67
2024/03/29 05:44:52;;;;;;;0.30;0.30;;;;;;;;;;4934434;29;20054;-68
2024/03/29 05:47:19;;;;;;;0.60;0.50;;;;;;;;;;4931722;29;20039;-67
2024/03/29 05:49:45;;;;;;;0.38;0.38;;;;;;;;;;4949350;28;20516;-67
2024/03/29 05:52:14;;;;;;;0.43;0.38;;;;;;;;;;4931738;28;20059;-67
2024/03/29 05:54:41;;;;;;;0.70;0.30;;;;;;;;;;4934027;28;20534;-68
2024/03/29 05:57:08;;;;;;;0.55;0.30;;;;;;;;;;4933115;29;20058;-67
2024/03/29 05:59:35;;;;;;;0.32;0.32;;;;;;;;;;4935413;29;20043;-68
2024/03/29 06:02:02;;;;;;;0.82;0.50;;;;;;;;;;4933442;29;20404;-68
2024/03/29 06:04:35;;;;;;;0.63;0.40;;;;;;;;;;4936624;29;20419;-68
2024/03/29 06:07:03;;;;;;;0.43;0.43;;;;;;;;;;4949642;28;20051;-67
2024/03/29 06:09:29;;;;;;;0.40;0.40;;;;;;;;;;4934413;28;20051;-64
2024/03/29 06:11:56;;;;;;;0.65;0.52;;;;;;;;;;4935079;29;20054;-64
2024/03/29 06:17:24;;;;;;;2.40;0.50;;;;;;;;;;4935408;29;20062;-64
2024/03/29 06:19:50;;;;;;;2.03;0.60;;;;;;;;;;4937980;28;20071;-64
2024/03/29 06:22:19;;;;;;;0.90;0.60;;;;;;;;;;4936638;29;20043;-64
2024/03/29 06:24:46;;;;;;;0.60;0.40;;;;;;;;;;4934697;29;20511;-65
2024/03/29 06:27:17;;;;;;;3.22;0.90;;;;;;;;;;4934529;29;20031;-65
2024/03/29 06:29:46;;;;;;;3.78;1.30;;;;;;;;;;4935811;29;20035;-64
2024/03/29 06:32:12;;;;;;;1.25;0.60;;;;;;;;;;4935812;28;20051;-64
2024/03/29 06:34:38;;;;;;;0.80;0.57;;;;;;;;;;4935549;28;20044;-64
2024/03/29 06:37:04;;;;;;;2.05;0.60;;;;;;;;;;4936392;29;20048;-64
2024/03/29 06:39:31;;;;;;;0.85;0.70;;;;;;;;;;4936786;29;20035;-64
2024/03/29 06:41:57;;;;;;;0.60;0.40;;;;;;;;;;4938378;29;20027;-64
2024/03/29 06:44:23;;;;;;;0.30;0.30;;;;;;;;;;4935670;29;20048;-65
2024/03/29 06:46:49;;;;;;;0.50;0.32;;;;;;;;;;4938051;29;20389;-64
2024/03/29 06:49:16;;;;;;;0.35;0.30;;;;;;;;;;4953534;28;20051;-65
2024/03/29 06:51:42;;;;;;;0.30;0.30;;;;;;;;;;4929950;29;20275;-64
2024/03/29 06:54:09;;;;;;;1.45;0.60;;;;;;;;;;4935628;29;20100;-64
2024/03/29 06:56:35;;;;;;;0.40;0.40;;;;;;;;;;4934777;29;20058;-64
2024/03/29 06:59:01;;;;;;;1.55;0.60;;;;;;;;;;4935628;29;20039;-64
2024/03/29 07:01:28;;;;;;;1.10;0.80;;;;;;;;;;4935313;28;20070;-64
2024/03/29 07:03:54;;;;;;;1.35;0.90;;;;;;;;;;4935537;29;20032;-64
2024/03/29 07:06:20;;;;;;;1.33;0.40;;;;;;;;;;4935047;29;20435;-65
2024/03/29 07:08:47;;;;;;;0.77;0.40;;;;;;;;;;4931722;29;20393;-64
2024/03/29 07:11:13;;;;;;;1.27;0.30;;;;;;;;;;4947799;28;20046;-64
2024/03/29 07:13:39;;;;;;;1.13;0.50;;;;;;;;;;4934376;29;20043;-64
2024/03/29 07:16:06;;;;;;;0.30;0.30;;;;;;;;;;4937229;28;20051;-64
2024/03/29 07:18:33;;;;;;;0.85;0.40;;;;;;;;;;4934130;29;20070;-65
2024/03/29 07:20:59;;;;;;;3.35;1.58;;;;;;;;;;4938085;29;20403;-64
2024/03/29 07:23:25;;;;;;;3.25;1.20;;;;;;;;;;4937044;29;20047;-64
2024/03/29 07:26:02;;;;;;;1.60;0.80;;;;;;;;;;4948642;28;20039;-64
2024/03/29 07:28:29;;;;;;;1.20;0.70;;;;;;;;;;4933017;29;20078;-64
2024/03/29 07:30:56;;;;;;;2.33;1.02;;;;;;;;;;4935709;29;20046;-65
2024/03/29 07:33:26;;;;;;;1.10;0.70;;;;;;;;;;4934912;29;20420;-64
2024/03/29 07:35:52;;;;;;;;;;;;;;;;;;4933517;29;20047;-64
2024/03/29 07:38:20;;;;;;;1.20;0.80;;;;;;;;;;4932935;29;20389;-64
2024/03/29 07:40:50;;;;;;;0.40;0.40;;;;;;;;;;4932594;29;20046;-64
2024/03/29 07:43:18;;;;;;;0.90;0.68;;;;;;;;;;4935015;29;20055;-64
2024/03/29 07:45:45;;;;;;;2.47;1.40;;;;;;;;;;4948852;28;20040;-66
2024/03/29 07:48:13;;;;;;;1.30;0.60;;;;;;;;;;4932185;28;20673;-64
2024/03/29 07:50:43;;;;;;;0.70;0.60;;;;;;;;;;4936486;29;20060;-65
2024/03/29 07:53:10;;;;;;;0.90;0.40;;;;;;;;;;4936861;29;20058;-64
2024/03/29 07:55:37;;;;;;;0.90;0.70;;;;;;;;;;4937999;29;20047;-64
2024/03/29 07:58:05;;;;;;;0.55;0.45;;;;;;;;;;4938259;29;20063;-65
2024/03/29 08:00:32;;;;;;;0.50;0.40;;;;;;;;;;4932351;29;20051;-64
2024/03/29 08:02:59;;;;;;;0.82;0.60;;;;;;;;;;4932896;29;20043;-66
2024/03/29 08:05:27;;;;;;;0.77;0.50;;;;;;;;;;4934408;28;20055;-65
2024/03/29 08:07:54;;;;;;;1.23;0.60;;;;;;;;;;4933036;29;20519;-65
2024/03/29 08:10:21;;;;;;;1.00;0.60;;;;;;;;;;4935730;29;20054;-67
2024/03/29 08:12:47;;;;;;;2.22;1.02;;;;;;;;;;4934312;29;20090;-66
2024/03/29 08:15:13;;;;;;;3.42;1.38;;;;;;;;;;4935599;29;20046;-67
2024/03/29 08:17:39;;;;;;;2.45;0.80;;;;;;;;;;4932635;29;20036;-66
2024/03/29 08:20:06;;;;;;;0.50;0.50;;;;;;;;;;4929966;29;20399;-64
2024/03/29 08:22:34;;;;;;;2.15;0.52;;;;;;;;;;4934523;29;20058;-65
2024/03/29 08:25:01;;;;;;;2.92;1.90;;;;;;;;;;4932959;29;20052;-65
2024/03/29 08:27:27;;;;;;;3.00;1.23;;;;;;;;;;4929485;29;20055;-64
2024/03/29 08:29:53;;;;;;;1.75;1.00;;;;;;;;;;4931902;29;20048;-65
2024/03/29 08:32:20;;;;;;;1.42;0.85;;;;;;;;;;4931894;28;20050;-65
2024/03/29 08:34:46;;;;;;;1.30;0.85;;;;;;;;;;4936009;29;20050;-64
2024/03/29 08:37:12;;;;;;;1.77;1.00;;;;;;;;;;4934224;29;20040;-65
2024/03/29 08:39:38;;;;;;;2.15;1.00;;;;;;;;;;4933667;29;20031;-64
2024/03/29 08:42:05;;;;;;;2.33;1.20;;;;;;;;;;4930427;29;20043;-65
2024/03/29 08:44:32;;;;;;;2.50;1.25;;;;;;;;;;4934408;28;20419;-65
2024/03/29 08:47:01;;;;;;;5.90;2.90;;;;;;;;;;4930922;29;20055;-65
2024/03/29 08:49:27;;;;;;;4.47;2.87;;;;;;;;;;4930486;29;20050;-65
2024/03/29 08:51:53;;;;;;;3.72;2.58;;;;;;;;;;4937841;28;20043;-65
2024/03/29 08:54:19;;;;;;;7.72;3.88;;;;;;;;;;4947491;28;20058;-65
2024/03/29 08:56:46;;;;;;;6.18;4.00;;;;;;;;;;4930015;29;20051;-64
2024/03/29 08:59:13;;;;;;;4.28;3.17;;;;;;;;;;4930272;29;20066;-67
2024/03/29 09:01:45;;;;;;;4.70;2.90;;;;;;;;;;4946545;28;20519;-67
2024/03/29 09:04:11;;;;;;;5.40;3.15;;;;;;;;;;4943623;28;20052;-65
2024/03/29 09:06:38;;;;;;;4.80;3.00;;;;;;;;;;4930987;29;21708;-64
2024/03/29 09:09:05;;;;;;;4.57;2.83;;;;;;;;;;4930586;29;20051;-63
2024/03/29 09:11:31;;;;;;;3.60;2.28;;;;;;;;;;4926420;29;20660;-64
2024/03/29 09:13:58;;;;;;;4.10;2.63;;;;;;;;;;4949169;28;20528;-63
2024/03/29 09:16:25;;;;;;;5.32;2.53;;;;;;;;;;4933839;28;20050;-64
2024/03/29 09:18:52;;;;;;;2.90;2.10;;;;;;;;;;4932652;29;20031;-63
2024/03/29 09:21:19;;;;;;;3.90;2.70;;;;;;;;;;4929322;29;20485;-64
2024/03/29 09:23:46;;;;;;;4.97;3.15;;;;;;;;;;4930900;29;20048;-64
2024/03/29 09:26:14;;;;;;;4.97;3.17;;;;;;;;;;4935492;29;20074;-64
2024/03/29 09:28:41;;;;;;;6.60;3.63;;;;;;;;;;4932295;29;20039;-63
2024/03/29 09:31:07;;;;;;;6.95;4.30;;;;;;;;;;4928449;28;20055;-64
2024/03/29 09:33:33;;;;;;;7.90;4.57;;;;;;;;;;4932733;29;20492;-64
2024/03/29 09:35:59;;;;;;;5.38;3.17;;;;;;;;;;4947138;28;20042;-64
2024/03/29 09:38:26;;;;;;;4.70;3.22;;;;;;;;;;4931282;28;20052;-64
2024/03/29 09:41:16;;;;;;;6.50;3.13;;;;;;;;;;4931811;29;20044;-63
2024/03/29 09:43:45;;;;;;;7.38;3.03;;;;;;;;;;4931868;29;20480;-64
2024/03/29 09:46:15;;;;;;;;;;;;;;;;;;4935015;29;20046;-64
2024/03/29 09:48:42;;;;;;;;;;;;;;;;;;4933801;29;20298;-66
2024/03/29 09:51:09;;;;;;;6.00;4.00;;;;;;;;;;4934465;28;19915;-64
2024/03/29 09:53:37;;;;;;;5.88;3.38;;;;;;;;;;4934187;29;20440;-63
2024/03/29 09:56:07;;;;;;;3.65;2.40;;;;;;;;;;4933576;29;20051;-63
2024/03/29 09:58:35;;;;;;;3.10;2.47;;;;;;;;;;4930834;28;20401;-67
2024/03/29 10:01:03;;;;;;;5.50;3.10;;;;;;;;;;4945925;28;20047;-65
2024/03/29 10:03:31;;;;;;;3.25;2.53;;;;;;;;;;4948971;28;20411;-64
2024/03/29 10:06:00;;;;;;;4.50;2.20;;;;;;;;;;4929386;29;20043;-63
2024/03/29 10:08:27;;;;;;;3.03;2.20;;;;;;;;;;4933277;29;20042;-63
2024/03/29 10:10:54;;;;;;;4.05;2.40;;;;;;;;;;4930839;28;20427;-63
2024/03/29 10:13:20;;;;;;;4.13;2.70;;;;;;;;;;4933150;29;20054;-63
2024/03/29 10:15:50;;;;;;;4.50;2.63;;;;;;;;;;4934658;29;20063;-63
2024/03/29 10:18:17;;;;;;;;;;;;;;;;;;4935898;28;20043;-64
2024/03/29 10:20:43;;;;;;;3.95;2.42;;;;;;;;;;4933603;29;20374;-63
2024/03/29 10:23:09;;;;;;;4.90;2.50;;;;;;;;;;4932088;29;20047;-63
2024/03/29 10:25:35;;;;;;;7.05;4.45;;;;;;;;;;4931907;29;20062;-63
2024/03/29 10:28:02;;;;;;;27.27;16.75;;;;;;;;;;4931328;29;20044;-63
2024/03/29 10:30:29;;;;;;;25.40;14.05;;;;;;;;;;4934141;28;20055;-63
2024/03/29 10:32:57;;;;;;;8.23;5.53;;;;;;;;;;4953705;28;20051;-64
2024/03/29 10:35:25;;;;;;;5.20;3.40;;;;;;;;;;4930839;29;20436;-63
2024/03/29 10:37:54;;;;;;;3.13;1.83;;;;;;;;;;4930491;28;20051;-63
2024/03/29 10:40:22;;;;;;;3.22;2.00;;;;;;;;;;4932268;28;20047;-63
2024/03/29 10:42:49;;;;;;;3.70;2.10;;;;;;;;;;4931506;29;20035;-63
2024/03/29 10:45:16;;;;;;;5.43;2.25;;;;;;;;;;4935170;29;20520;-63
2024/03/29 10:47:44;;;;;;;7.30;2.63;;;;;;;;;;4936785;29;20054;-63
2024/03/29 10:50:12;;;;;;;4.47;2.65;;;;;;;;;;4937937;28;20051;-63
2024/03/29 10:52:40;;;;;;;4.53;2.85;;;;;;;;;;4932208;29;20039;-63
2024/03/29 10:55:11;;;;;;;7.07;2.88;;;;;;;;;;4934835;29;20043;-63
2024/03/29 10:57:41;;;;;;;5.57;2.60;;;;;;;;;;4935085;28;20084;-63
2024/03/29 11:00:18;;;;;;;4.25;2.22;;;;;;;;;;4955058;28;20055;-63
2024/03/29 11:03:03;;;;;;;6.82;3.33;;;;;;;;;;4933510;29;20036;-63
2024/03/29 11:05:32;;;;;;;6.45;2.85;;;;;;;;;;4936190;29;20054;-63
2024/03/29 11:07:58;;;;;;;5.82;3.05;;;;;;;;;;4938665;29;20036;-62
2024/03/29 11:10:30;;;;;;;4.18;2.20;;;;;;;;;;4949096;28;20055;-62
2024/03/29 11:13:05;;;;;;;4.10;2.50;;;;;;;;;;4935593;29;20059;-63
2024/03/29 11:15:36;;;;;;;23.80;11.32;;;;;;;;;;4938262;29;20059;-64
2024/03/29 11:18:04;;;;;;;5.65;2.42;;;;;;;;;;4938511;29;20066;-61
2024/03/29 11:20:34;;;;;;;3.45;1.77;;;;;;;;;;4950146;28;20051;-64
2024/03/29 11:23:14;;;;;;;4.65;2.08;;;;;;;;;;4938805;28;20051;-62
2024/03/29 11:25:42;;;;;;;5.68;1.90;;;;;;;;;;4935168;29;20055;-63
2024/03/29 11:28:09;;;;;;;11.18;4.00;;;;;;;;;;4941709;28;20869;-63
2024/03/29 11:30:42;;;;;;;13.05;4.65;;;;;;;;;;4938846;29;20139;-63
2024/03/29 11:33:27;;;;;;;4.55;2.40;;;;;;;;;;4940247;29;20059;-62
2024/03/29 11:35:53;;;;;;;7.03;3.30;;;;;;;;;;4942746;29;20646;-62
2024/03/29 11:38:19;;;;;;;7.57;2.90;;;;;;;;;;4937052;29;20040;-63
2024/03/29 11:41:00;;;;;;;3.92;1.98;;;;;;;;;;4938736;29;20043;-64
2024/03/29 11:43:28;;;;;;;5.93;2.70;;;;;;;;;;4941556;29;20050;-64
2024/03/29 11:45:55;;;;;;;3.33;1.88;;;;;;;;;;4938732;29;20043;-63
2024/03/29 11:48:26;;;;;;;2.92;1.45;;;;;;;;;;4931952;29;20063;-64
2024/03/29 11:50:53;;;;;;;2.58;1.50;;;;;;;;;;4934995;29;20035;-65
2024/03/29 11:53:20;;;;;;;4.70;1.73;;;;;;;;;;4935155;29;20396;-66
2024/03/29 11:55:48;;;;;;;4.07;1.50;;;;;;;;;;4934245;29;20046;-66
2024/03/29 11:58:15;;;;;;;4.20;2.50;;;;;;;;;;4934443;29;20534;-65
2024/03/29 12:00:44;;;;;;;2.45;1.83;;;;;;;;;;4934809;29;20039;-64
2024/03/29 12:03:10;;;;;;;1.60;1.40;;;;;;;;;;4935151;28;20044;-67
2024/03/29 12:05:36;;;;;;;2.38;1.50;;;;;;;;;;4938303;29;20043;-64
2024/03/29 12:08:03;;;;;;;2.38;2.15;;;;;;;;;;4935816;29;20503;-65
2024/03/29 12:10:30;;;;;;;2.38;1.40;;;;;;;;;;4935435;28;20070;-64
2024/03/29 12:12:57;;;;;;;2.17;1.40;;;;;;;;;;4933007;28;20058;-64
2024/03/29 12:15:24;;;;;;;2.15;1.10;;;;;;;;;;4932933;29;20484;-64
2024/03/29 12:17:58;;;;;;;2.17;1.10;;;;;;;;;;4932879;29;20046;-63
2024/03/29 12:20:24;;;;;;;1.98;1.35;;;;;;;;;;4931088;29;20044;-63
2024/03/29 12:22:50;;;;;;;3.63;1.30;;;;;;;;;;4931563;29;20127;-63
2024/03/29 12:25:21;;;;;;;2.70;1.30;;;;;;;;;;4931911;29;20048;-63
2024/03/29 12:27:47;;;;;;;1.45;1.05;;;;;;;;;;4932541;29;20511;-63
2024/03/29 12:30:15;;;;;;;2.58;1.00;;;;;;;;;;4933870;29;20035;-65
2024/03/29 12:32:41;;;;;;;0.98;0.80;;;;;;;;;;4935519;29;20031;-64
2024/03/29 12:35:11;;;;;;;1.80;1.00;;;;;;;;;;4936203;29;20031;-66
2024/03/29 12:37:38;;;;;;;2.30;1.30;;;;;;;;;;4934598;29;20055;-65
2024/03/29 12:40:11;;;;;;;1.08;0.98;;;;;;;;;;4945398;28;20043;-65
2024/03/29 12:42:41;;;;;;;4.13;2.17;;;;;;;;;;4935601;29;20058;-65
2024/03/29 12:45:08;;;;;;;4.20;2.10;;;;;;;;;;4933252;29;20028;-65
2024/03/29 12:47:35;;;;;;;3.08;1.70;;;;;;;;;;4935394;29;20054;-66
2024/03/29 12:50:01;;;;;;;2.67;1.42;;;;;;;;;;4937377;28;20437;-64
2024/03/29 12:52:27;;;;;;;3.15;1.30;;;;;;;;;;4932543;29;20036;-66
2024/03/29 12:54:53;;;;;;;2.35;1.20;;;;;;;;;;4934007;29;20050;-64
2024/03/29 12:57:19;;;;;;;4.55;2.03;;;;;;;;;;4948344;28;20039;-64
2024/03/29 12:59:46;;;;;;;4.60;1.95;;;;;;;;;;4933866;29;20471;-66
2024/03/29 13:02:13;;;;;;;4.80;2.28;;;;;;;;;;4932219;29;20048;-66
2024/03/29 13:04:43;;;;;;;3.92;1.48;;;;;;;;;;4937012;28;20051;-66
2024/03/29 13:07:09;;;;;;;2.35;1.40;;;;;;;;;;4934619;29;20035;-66
2024/03/29 13:09:40;;;;;;;2.38;1.25;;;;;;;;;;4933088;29;20077;-67
2024/03/29 13:12:12;;;;;;;1.48;1.13;;;;;;;;;;4933430;28;20051;-64
2024/03/29 13:14:38;;;;;;;4.05;1.05;;;;;;;;;;4933786;29;20051;-65
2024/03/29 13:17:04;;;;;;;2.35;1.15;;;;;;;;;;4932427;29;20027;-66
2024/03/29 13:19:30;;;;;;;1.13;0.90;;;;;;;;;;4930295;29;20411;-66
2024/03/29 13:21:58;;;;;;;2.05;1.10;;;;;;;;;;4931141;29;20043;-64
2024/03/29 13:24:24;;;;;;;1.90;1.20;;;;;;;;;;4929342;28;20424;-65
2024/03/29 13:26:51;;;;;;;3.80;1.75;;;;;;;;;;4930667;29;20032;-66
2024/03/29 13:29:17;;;;;;;1.88;1.30;;;;;;;;;;4934277;28;20047;-63
2024/03/29 13:31:43;;;;;;;1.63;1.02;;;;;;;;;;4934079;29;20039;-66
2024/03/29 13:34:12;;;;;;;3.97;1.15;;;;;;;;;;4933321;29;20047;-65
2024/03/29 13:36:39;;;;;;;5.65;1.23;;;;;;;;;;4935469;29;20056;-65
2024/03/29 13:39:07;;;;;;;2.50;1.23;;;;;;;;;;4935056;28;20393;-64
2024/03/29 13:41:36;;;;;;;6.78;1.85;;;;;;;;;;4937299;28;20066;-68
2024/03/29 13:44:06;;;;;;;;;;;;;;;;;;4933382;29;20032;-68
2024/03/29 13:46:35;;;;;;;2.80;1.50;;;;;;;;;;4935789;29;19914;-71
2024/03/29 13:49:05;;;;;;;2.33;1.63;;;;;;;;;;4935618;28;20061;-67
2024/03/29 13:51:31;;;;;;;3.38;1.30;;;;;;;;;;4933732;28;20414;-67
2024/03/29 13:53:58;;;;;;;8.35;1.30;;;;;;;;;;4930842;29;20404;-67
2024/03/29 13:56:24;;;;;;;3.45;1.40;;;;;;;;;;4931584;29;20503;-67
2024/03/29 13:58:51;;;;;;;4.18;1.30;;;;;;;;;;4945392;28;20076;-67
2024/03/29 14:01:17;;;;;;;4.03;1.23;;;;;;;;;;4932668;29;20047;-66
2024/03/29 14:03:43;;;;;;;3.45;1.15;;;;;;;;;;4932928;29;20511;-66
2024/03/29 14:06:10;;;;;;;3.00;1.70;;;;;;;;;;4932436;29;20383;-64
2024/03/29 14:08:36;;;;;;;16.58;1.90;;;;;;;;;;4934653;28;20055;-64
2024/03/29 14:11:03;;;;;;;7.57;1.90;;;;;;;;;;4930082;29;20047;-64
2024/03/29 14:13:29;;;;;;;12.52;1.92;;;;;;;;;;4933372;29;20051;-66
2024/03/29 14:15:55;;;;;;;9.60;1.77;;;;;;;;;;4932756;29;20549;-64
2024/03/29 14:18:21;;;;;;;5.63;2.38;;;;;;;;;;4932874;28;20228;-65
2024/03/29 14:20:48;;;;;;;5.13;1.60;;;;;;;;;;4935837;29;20100;-65
2024/03/29 14:23:18;;;;;;;2.97;1.27;;;;;;;;;;4929218;29;20063;-64
2024/03/29 14:25:44;;;;;;;7.18;1.27;;;;;;;;;;4937828;28;20047;-62
2024/03/29 14:28:10;;;;;;;3.90;1.52;;;;;;;;;;4948547;28;20031;-68
2024/03/29 14:30:36;;;;;;;2.75;1.20;;;;;;;;;;4935336;29;20731;-68
2024/03/29 14:33:06;;;;;;;1.45;1.10;;;;;;;;;;4931891;29;20051;-68
2024/03/29 14:35:33;;;;;;;1.95;1.02;;;;;;;;;;4931132;29;20085;-66
2024/03/29 14:38:00;;;;;;;1.48;1.10;;;;;;;;;;4933853;29;20083;-68
2024/03/29 14:40:29;;;;;;;3.05;1.00;;;;;;;;;;4933180;29;20051;-67
2024/03/29 14:42:57;;;;;;;1.90;1.35;;;;;;;;;;4935596;29;20039;-66
2024/03/29 14:45:24;;;;;;;2.45;1.08;;;;;;;;;;4935554;28;20515;-67
2024/03/29 14:47:50;;;;;;;1.50;1.00;;;;;;;;;;4936898;29;20039;-67
2024/03/29 14:50:18;;;;;;;1.60;1.00;;;;;;;;;;4935641;29;20046;-66
2024/03/29 14:52:44;;;;;;;2.42;1.00;;;;;;;;;;4934450;28;20058;-67
2024/03/29 14:55:10;;;;;;;1.27;1.05;;;;;;;;;;4932395;29;20050;-66